createdAt,value
2022-07-26T00:01:48.657Z,21.15
2022-07-26T00:04:16.235Z,18.08
2022-07-26T00:06:43.770Z,17.50
2022-07-26T00:09:11.596Z,18.45
2022-07-26T00:11:39.223Z,22.85
2022-07-26T00:14:07.808Z,24.33
2022-07-26T00:16:35.795Z,24.00
2022-07-26T00:19:03.443Z,20.58
2022-07-26T00:21:31.352Z,23.95
2022-07-26T00:23:58.829Z,21.92
2022-07-26T00:26:26.457Z,22.33
2022-07-26T00:28:53.894Z,17.98
2022-07-26T00:31:21.571Z,16.23
2022-07-26T00:33:49.108Z,16.35
2022-07-26T00:36:16.748Z,18.60
2022-07-26T00:38:44.272Z,20.95
2022-07-26T00:41:11.811Z,23.55
2022-07-26T00:43:45.359Z,23.60
2022-07-26T00:46:12.936Z,16.35
2022-07-26T00:48:40.464Z,15.85
2022-07-26T00:51:07.990Z,15.40
2022-07-26T00:53:35.448Z,17.10
2022-07-26T00:56:02.976Z,17.50
2022-07-26T00:58:30.436Z,20.38
2022-07-26T01:00:58.041Z,15.75
2022-07-26T01:03:30.384Z,14.52
2022-07-26T01:06:04.288Z,17.25
2022-07-26T01:08:31.805Z,16.52
2022-07-26T01:10:59.681Z,17.00
2022-07-26T01:13:29.677Z,18.35
2022-07-26T01:15:59.583Z,18.05
2022-07-26T01:18:27.069Z,23.95
2022-07-26T01:20:55.034Z,17.38
2022-07-26T01:23:22.513Z,19.92
2022-07-26T01:25:50.108Z,28.65
2022-07-26T01:28:20.420Z,18.42
2022-07-26T01:30:49.035Z,18.27
2022-07-26T01:33:17.173Z,15.60
2022-07-26T01:35:44.650Z,16.25
2022-07-26T01:38:12.591Z,16.55
2022-07-26T01:40:40.038Z,17.35
2022-07-26T01:43:07.499Z,21.77
2022-07-26T01:45:35.117Z,18.52
2022-07-26T01:48:02.676Z,18.33
2022-07-26T01:50:30.138Z,25.63
2022-07-26T01:52:57.633Z,17.15
2022-07-26T01:55:25.042Z,18.50
2022-07-26T01:57:53.618Z,16.10
2022-07-26T02:00:21.130Z,16.58
2022-07-26T02:02:48.698Z,19.27
2022-07-26T02:05:16.250Z,17.25
2022-07-26T02:07:44.582Z,18.65
2022-07-26T02:10:13.060Z,16.70
2022-07-26T02:12:42.204Z,18.17
2022-07-26T02:15:12.571Z,19.90
2022-07-26T02:17:40.023Z,18.15
2022-07-26T02:20:08.167Z,19.48
2022-07-26T02:22:36.313Z,16.45
2022-07-26T02:25:05.462Z,17.92
2022-07-26T02:27:33.501Z,20.17
2022-07-26T02:30:02.004Z,17.17
2022-07-26T02:32:29.469Z,15.32
2022-07-26T02:34:56.963Z,17.33
2022-07-26T02:37:24.531Z,16.25
2022-07-26T02:39:51.972Z,16.20
2022-07-26T02:42:19.538Z,16.85
2022-07-26T02:44:47.077Z,17.73
2022-07-26T02:47:14.592Z,16.80
2022-07-26T02:49:42.085Z,16.42
2022-07-26T02:52:09.538Z,15.68
2022-07-26T02:54:37.054Z,16.10
2022-07-26T02:57:04.605Z,14.55
2022-07-26T02:59:32.113Z,15.80
2022-07-26T03:01:59.657Z,14.60
2022-07-26T03:04:27.263Z,16.85
2022-07-26T03:06:54.695Z,15.52
2022-07-26T03:09:22.199Z,19.10
2022-07-26T03:11:49.701Z,16.40
2022-07-26T03:14:17.216Z,17.23
2022-07-26T03:16:44.795Z,21.88
2022-07-26T03:19:12.226Z,18.08
2022-07-26T03:21:39.734Z,24.95
2022-07-26T03:24:07.660Z,17.02
2022-07-26T03:26:35.317Z,22.60
2022-07-26T03:29:02.760Z,23.33
2022-07-26T03:31:30.542Z,18.45
2022-07-26T03:34:03.960Z,23.83
2022-07-26T03:36:31.676Z,25.63
2022-07-26T03:38:59.261Z,20.25
2022-07-26T03:41:26.772Z,18.10
2022-07-26T03:43:54.223Z,20.55
2022-07-26T03:46:21.779Z,18.58
2022-07-26T03:48:49.299Z,17.15
2022-07-26T03:51:16.889Z,16.75
2022-07-26T03:53:44.321Z,20.38
2022-07-26T03:56:31.949Z,28.58
2022-07-26T03:59:00.767Z,25.13
2022-07-26T04:01:28.327Z,17.00
2022-07-26T04:03:55.864Z,20.25
2022-07-26T04:06:23.676Z,20.52
2022-07-26T04:08:51.444Z,22.50
2022-07-26T04:11:18.886Z,19.55
2022-07-26T04:13:46.379Z,25.10
2022-07-26T04:16:14.463Z,20.10
2022-07-26T04:18:42.627Z,18.73
2022-07-26T04:21:10.283Z,21.45
2022-07-26T04:23:37.775Z,21.55
2022-07-26T04:26:05.748Z,21.90
2022-07-26T04:28:33.463Z,21.15
2022-07-26T04:31:01.531Z,21.02
2022-07-26T04:33:29.141Z,18.55
2022-07-26T04:35:56.679Z,19.77
2022-07-26T04:38:24.102Z,17.98
2022-07-26T04:40:51.986Z,17.05
2022-07-26T04:43:19.746Z,16.83
2022-07-26T04:45:47.394Z,17.17
2022-07-26T04:48:15.808Z,17.02
2022-07-26T04:50:43.890Z,18.23
2022-07-26T04:53:11.442Z,16.70
2022-07-26T04:55:39.092Z,15.85
2022-07-26T04:58:07.052Z,16.77
2022-07-26T05:00:46.982Z,15.25
2022-07-26T05:03:25.111Z,14.25
2022-07-26T05:05:53.505Z,15.32
2022-07-26T05:08:20.991Z,15.52
2022-07-26T05:10:54.572Z,13.82
2022-07-26T05:13:29.392Z,12.88
2022-07-26T05:15:59.517Z,12.30
2022-07-26T05:18:27.641Z,14.52
2022-07-26T05:20:57.520Z,14.90
2022-07-26T05:23:25.005Z,12.40
2022-07-26T05:25:52.663Z,11.93
2022-07-26T05:28:20.130Z,12.05
2022-07-26T05:30:47.656Z,12.43
2022-07-26T05:33:16.716Z,13.02
2022-07-26T05:35:44.335Z,12.52
2022-07-26T05:38:12.077Z,13.48
2022-07-26T05:40:39.607Z,14.63
2022-07-26T05:43:07.485Z,13.05
2022-07-26T05:45:34.971Z,14.93
2022-07-26T05:48:02.457Z,15.35
2022-07-26T05:50:30.027Z,13.18
2022-07-26T05:52:57.542Z,15.20
2022-07-26T05:55:25.087Z,13.02
2022-07-26T05:57:52.651Z,12.68
2022-07-26T06:00:20.944Z,13.88
2022-07-26T06:02:48.483Z,14.80
2022-07-26T06:05:16.241Z,10.27
2022-07-26T06:07:44.187Z,11.82
2022-07-26T06:10:11.796Z,10.23
2022-07-26T06:12:39.278Z,11.63
2022-07-26T06:15:14.716Z,14.77
2022-07-26T06:17:43.545Z,12.38
2022-07-26T06:20:11.389Z,15.15
2022-07-26T06:22:38.881Z,13.02
2022-07-26T06:25:06.642Z,12.77
2022-07-26T06:27:34.131Z,13.73
2022-07-26T06:30:01.552Z,13.70
2022-07-26T06:32:29.051Z,16.55
2022-07-26T06:34:56.516Z,13.05
2022-07-26T06:37:24.091Z,13.77
2022-07-26T06:39:51.544Z,16.08
2022-07-26T06:42:19.064Z,15.75
2022-07-26T06:44:46.654Z,13.85
2022-07-26T06:47:14.169Z,17.95
2022-07-26T06:49:41.613Z,14.98
2022-07-26T06:52:09.091Z,15.32
2022-07-26T06:54:36.565Z,12.98
2022-07-26T06:57:04.193Z,12.18
2022-07-26T06:59:31.619Z,15.10
2022-07-26T07:02:00.509Z,15.30
2022-07-26T07:04:31.764Z,14.00
2022-07-26T07:07:05.224Z,11.82
2022-07-26T07:09:33.912Z,11.13
2022-07-26T07:12:09.710Z,11.77
2022-07-26T07:14:38.650Z,14.13
2022-07-26T07:17:11.255Z,15.02
2022-07-26T07:19:41.569Z,12.38
2022-07-26T07:22:12.266Z,14.68
2022-07-26T07:24:40.551Z,10.80
2022-07-26T07:27:08.161Z,13.18
2022-07-26T07:29:35.939Z,9.05
2022-07-26T07:32:03.722Z,9.25
2022-07-26T07:34:31.575Z,7.90
2022-07-26T07:36:59.187Z,9.52
2022-07-26T07:39:38.512Z,9.30
2022-07-26T07:42:06.422Z,8.98
2022-07-26T07:44:34.074Z,9.45
2022-07-26T07:47:01.704Z,8.43
2022-07-26T07:49:29.419Z,10.73
2022-07-26T07:51:57.038Z,9.55
2022-07-26T07:54:24.585Z,8.23
2022-07-26T07:56:53.188Z,11.15
2022-07-26T07:59:20.653Z,11.55
2022-07-26T08:01:50.507Z,8.75
2022-07-26T08:04:18.188Z,10.48
2022-07-26T08:06:50.432Z,10.23
2022-07-26T08:11:50.705Z,7.28
2022-07-26T08:14:19.339Z,24.33
2022-07-26T08:16:47.113Z,7.10
2022-07-26T08:19:15.709Z,7.40
2022-07-26T08:21:46.084Z,8.70
2022-07-26T08:24:14.546Z,22.73
2022-07-26T08:26:42.043Z,18.02
2022-07-26T08:29:09.697Z,8.15
2022-07-26T08:31:37.432Z,6.45
2022-07-26T08:34:05.006Z,8.05
2022-07-26T08:36:33.189Z,12.30
2022-07-26T08:39:01.499Z,8.82
2022-07-26T08:41:29.188Z,8.07
2022-07-26T08:44:05.053Z,5.97
2022-07-26T08:46:35.451Z,7.18
2022-07-26T08:49:03.052Z,7.50
2022-07-26T08:51:31.669Z,12.30
2022-07-26T08:54:05.188Z,9.45
2022-07-26T08:56:34.048Z,9.93
2022-07-26T08:59:03.687Z,7.43
2022-07-26T09:01:31.327Z,9.15
2022-07-26T09:04:30.405Z,8.88
2022-07-26T09:07:00.130Z,7.38
2022-07-26T09:09:28.110Z,8.18
2022-07-26T09:11:56.493Z,6.65
2022-07-26T09:14:24.180Z,9.10
2022-07-26T09:17:01.022Z,7.90
2022-07-26T09:19:29.332Z,6.05
2022-07-26T09:21:58.188Z,7.30
2022-07-26T09:24:32.810Z,7.38
2022-07-26T09:27:01.066Z,7.07
2022-07-26T09:29:29.943Z,10.40
2022-07-26T09:32:19.415Z,8.77
2022-07-26T09:34:58.801Z,10.05
2022-07-26T09:37:36.402Z,11.18
2022-07-26T09:40:06.388Z,8.98
2022-07-26T09:42:33.934Z,10.15
2022-07-26T09:45:01.806Z,8.90
2022-07-26T09:47:39.274Z,8.65
2022-07-26T09:50:17.284Z,10.00
2022-07-26T09:53:03.810Z,13.00
2022-07-26T09:55:40.900Z,8.10
2022-07-26T09:58:15.863Z,12.30
2022-07-26T10:00:44.280Z,10.65
2022-07-26T10:03:12.312Z,9.27
2022-07-26T10:05:39.920Z,16.52
2022-07-26T10:08:07.990Z,7.90
2022-07-26T10:10:47.746Z,8.88
2022-07-26T10:13:15.460Z,10.82
2022-07-26T10:15:47.481Z,11.55
2022-07-26T10:18:34.320Z,12.87
2022-07-26T10:21:19.399Z,22.65
2022-07-26T10:23:47.816Z,9.65
2022-07-26T10:26:33.893Z,10.57
2022-07-26T10:29:21.883Z,8.50
2022-07-26T10:31:53.228Z,8.80
2022-07-26T10:34:37.625Z,8.65
2022-07-26T10:37:10.394Z,9.25
2022-07-26T10:39:38.803Z,10.00
2022-07-26T10:42:07.757Z,11.88
2022-07-26T10:44:36.631Z,21.00
2022-07-26T10:47:04.127Z,16.42
2022-07-26T10:49:38.023Z,11.10
2022-07-26T10:52:10.352Z,11.20
2022-07-26T10:54:56.412Z,13.35
2022-07-26T10:57:44.162Z,10.07
2022-07-26T11:00:17.183Z,8.90
2022-07-26T11:02:45.495Z,10.40
2022-07-26T11:05:17.110Z,9.25
2022-07-26T11:07:49.699Z,12.13
2022-07-26T11:10:17.218Z,8.68
2022-07-26T11:12:44.747Z,8.10
2022-07-26T11:15:19.035Z,7.85
2022-07-26T11:17:46.860Z,7.15
2022-07-26T11:20:29.256Z,7.13
2022-07-26T11:22:57.391Z,7.60
2022-07-26T11:25:24.856Z,8.25
2022-07-26T11:28:01.536Z,12.30
2022-07-26T11:30:29.917Z,10.23
2022-07-26T11:33:00.465Z,8.85
2022-07-26T11:35:29.702Z,8.00
2022-07-26T11:38:07.830Z,9.60
2022-07-26T11:40:48.817Z,7.97
2022-07-26T11:43:16.364Z,8.32
2022-07-26T11:45:43.874Z,8.98
2022-07-26T11:48:11.439Z,10.88
2022-07-26T11:50:38.912Z,9.30
2022-07-26T11:53:21.176Z,8.38
2022-07-26T11:55:48.711Z,9.55
2022-07-26T11:58:16.294Z,8.25
2022-07-26T12:00:43.926Z,8.02
2022-07-26T12:03:11.419Z,7.80
2022-07-26T12:05:38.966Z,9.10
2022-07-26T12:08:07.425Z,8.25
2022-07-26T12:10:42.890Z,8.02
2022-07-26T12:13:12.126Z,7.32
2022-07-26T12:15:46.786Z,8.85
2022-07-26T12:18:30.370Z,7.78
2022-07-26T12:21:07.126Z,9.10
2022-07-26T12:23:52.561Z,7.82
2022-07-26T12:26:24.487Z,8.35
2022-07-26T12:28:52.216Z,9.93
2022-07-26T12:31:34.253Z,7.15
2022-07-26T12:34:02.389Z,7.72
2022-07-26T12:36:30.482Z,7.10
2022-07-26T12:38:59.386Z,7.55
2022-07-26T12:41:33.041Z,7.00
2022-07-26T12:46:28.058Z,8.50
2022-07-26T12:49:00.151Z,9.93
2022-07-26T12:51:28.241Z,7.25
2022-07-26T12:53:55.700Z,7.15
2022-07-26T12:56:23.239Z,7.40
2022-07-26T12:58:58.281Z,7.05
2022-07-26T13:01:25.948Z,6.75
2022-07-26T13:03:53.663Z,7.65
2022-07-26T13:06:21.166Z,7.35
2022-07-26T13:08:48.846Z,7.70
2022-07-26T13:11:16.493Z,7.85
2022-07-26T13:13:43.984Z,8.10
2022-07-26T13:16:12.502Z,9.05
2022-07-26T13:18:40.277Z,9.02
2022-07-26T13:21:07.978Z,8.80
2022-07-26T13:23:35.846Z,8.25
2022-07-26T13:26:04.223Z,10.15
2022-07-26T13:28:31.915Z,8.18
2022-07-26T13:30:59.550Z,7.47
2022-07-26T13:33:27.029Z,8.60
2022-07-26T13:35:56.514Z,7.95
2022-07-26T13:38:24.109Z,7.88
2022-07-26T13:40:51.645Z,8.82
2022-07-26T13:43:19.069Z,8.45
2022-07-26T13:45:46.610Z,8.52
2022-07-26T13:48:14.170Z,7.53
2022-07-26T13:50:41.786Z,7.75
2022-07-26T13:53:09.244Z,8.40
2022-07-26T13:55:36.827Z,10.02
2022-07-26T13:58:09.672Z,10.75
2022-07-26T14:00:38.785Z,6.70
2022-07-26T14:03:11.959Z,10.68
2022-07-26T14:05:47.178Z,6.53
2022-07-26T14:08:17.027Z,7.45
2022-07-26T14:10:44.817Z,7.80
2022-07-26T14:13:15.054Z,7.10
2022-07-26T14:15:42.599Z,8.27
2022-07-26T14:18:15.627Z,6.93
2022-07-26T14:20:43.377Z,8.20
2022-07-26T14:23:10.912Z,7.30
2022-07-26T14:25:41.136Z,7.82
2022-07-26T14:28:11.591Z,7.38
2022-07-26T14:30:42.289Z,7.75
2022-07-26T14:33:13.060Z,6.70
2022-07-26T14:35:41.971Z,6.55
2022-07-26T14:38:11.349Z,7.82
2022-07-26T14:40:41.708Z,6.88
2022-07-26T14:43:09.632Z,7.00
2022-07-26T14:45:37.317Z,8.75
2022-07-26T14:48:07.933Z,7.50
2022-07-26T14:51:06.975Z,6.60
2022-07-26T14:53:24.954Z,8.52
2022-07-26T14:55:53.012Z,8.90
2022-07-26T14:58:20.957Z,7.57
2022-07-26T15:00:48.754Z,7.05
2022-07-26T15:03:16.302Z,7.82
2022-07-26T15:05:43.910Z,6.30
2022-07-26T15:08:13.966Z,7.40
2022-07-26T15:10:41.876Z,7.45
2022-07-26T15:13:09.463Z,7.22
2022-07-26T15:15:37.025Z,6.80
2022-07-26T15:18:04.555Z,6.30
2022-07-26T15:20:32.217Z,6.80
2022-07-26T15:23:00.402Z,7.28
2022-07-26T15:25:28.081Z,5.82
2022-07-26T15:27:55.559Z,5.63
2022-07-26T15:30:23.969Z,6.68
2022-07-26T15:32:54.585Z,7.07
2022-07-26T15:35:22.106Z,8.10
2022-07-26T15:37:49.641Z,6.30
2022-07-26T15:40:17.784Z,7.50
2022-07-26T15:42:46.544Z,7.10
2022-07-26T15:45:14.166Z,9.70
2022-07-26T15:48:06.894Z,6.00
2022-07-26T15:50:29.876Z,5.68
2022-07-26T15:52:57.359Z,14.65
2022-07-26T15:55:24.882Z,11.77
2022-07-26T15:57:55.910Z,8.27
2022-07-26T16:00:23.380Z,5.78
2022-07-26T16:02:50.992Z,5.38
2022-07-26T16:05:19.027Z,6.75
2022-07-26T16:07:47.900Z,7.65
2022-07-26T16:10:16.566Z,5.22
2022-07-26T16:12:44.104Z,5.00
2022-07-26T16:15:12.061Z,6.55
2022-07-26T16:17:39.722Z,8.13
2022-07-26T16:20:07.556Z,5.72
2022-07-26T16:22:35.324Z,5.22
2022-07-26T16:25:05.927Z,5.32
2022-07-26T16:27:33.491Z,5.30
2022-07-26T16:30:01.051Z,5.30
2022-07-26T16:32:28.578Z,5.40
2022-07-26T16:34:56.096Z,5.65
2022-07-26T16:37:23.580Z,5.57
2022-07-26T16:39:51.184Z,5.78
2022-07-26T16:42:18.716Z,7.72
2022-07-26T16:44:46.256Z,6.10
2022-07-26T16:47:14.042Z,7.28
2022-07-26T16:49:42.764Z,7.30
2022-07-26T16:52:10.359Z,7.75
2022-07-26T16:54:37.989Z,6.75
2022-07-26T16:57:06.771Z,6.93
2022-07-26T16:59:34.369Z,8.68
2022-07-26T17:02:03.087Z,9.15
2022-07-26T17:04:30.860Z,10.00
2022-07-26T17:07:23.491Z,9.52
2022-07-26T17:09:46.176Z,7.20
2022-07-26T17:12:13.640Z,11.23
2022-07-26T17:14:41.241Z,6.95
2022-07-26T17:17:08.908Z,13.68
2022-07-26T17:19:36.351Z,7.05
2022-07-26T17:22:03.936Z,12.65
2022-07-26T17:24:31.459Z,8.57
2022-07-26T17:26:59.040Z,12.55
2022-07-26T17:29:26.484Z,12.10
2022-07-26T17:31:55.042Z,10.77
2022-07-26T17:34:22.619Z,11.43
2022-07-26T17:36:57.235Z,11.05
2022-07-26T17:39:50.788Z,17.88
2022-07-26T17:42:14.877Z,13.57
2022-07-26T17:44:43.075Z,16.80
2022-07-26T17:47:27.843Z,25.65
2022-07-26T17:49:57.088Z,29.45
2022-07-26T17:52:26.639Z,30.63
2022-07-26T17:54:55.807Z,31.67
2022-07-26T17:57:23.417Z,30.50
2022-07-26T17:59:50.866Z,28.73
2022-07-26T18:02:18.445Z,30.27
2022-07-26T18:04:46.042Z,33.42
2022-07-26T18:07:13.871Z,35.20
2022-07-26T18:09:41.405Z,35.15
2022-07-26T18:12:09.327Z,28.77
2022-07-26T18:14:38.746Z,29.77
2022-07-26T18:17:06.249Z,36.25
2022-07-26T18:19:33.889Z,50.83
2022-07-26T18:22:05.731Z,36.13
2022-07-26T18:24:33.692Z,27.13
2022-07-26T18:27:01.195Z,26.02
2022-07-26T18:29:28.628Z,19.60
2022-07-26T18:32:00.265Z,18.85
2022-07-26T18:34:27.878Z,13.48
2022-07-26T18:36:55.377Z,14.82
2022-07-26T18:39:23.072Z,20.92
2022-07-26T18:41:50.563Z,16.05
2022-07-26T18:44:18.028Z,15.65
2022-07-26T18:46:45.614Z,18.55
2022-07-26T18:49:16.144Z,19.70
2022-07-26T18:51:48.429Z,17.23
2022-07-26T18:54:16.730Z,11.35
2022-07-26T18:56:44.562Z,7.75
2022-07-26T18:59:12.448Z,8.95
2022-07-26T19:01:40.272Z,11.30
2022-07-26T19:04:07.854Z,12.48
2022-07-26T19:06:35.872Z,12.13
2022-07-26T19:09:03.531Z,14.43
2022-07-26T19:11:33.035Z,15.15
2022-07-26T19:14:05.119Z,11.82
2022-07-26T19:16:32.794Z,12.80
2022-07-26T19:19:00.346Z,14.35
2022-07-26T19:21:27.967Z,15.82
2022-07-26T19:23:55.453Z,11.93
2022-07-26T19:26:24.043Z,12.93
2022-07-26T19:28:51.569Z,11.60
2022-07-26T19:31:19.138Z,11.25
2022-07-26T19:33:46.697Z,10.82
2022-07-26T19:36:18.095Z,12.00
2022-07-26T19:38:53.472Z,11.52
2022-07-26T19:41:20.969Z,13.23
2022-07-26T19:43:48.575Z,13.68
2022-07-26T19:46:16.066Z,10.93
2022-07-26T19:48:43.759Z,11.35
2022-07-26T19:51:11.488Z,10.50
2022-07-26T19:53:38.932Z,13.68
2022-07-26T19:56:07.461Z,15.57
2022-07-26T19:58:34.914Z,15.27
2022-07-26T20:01:02.730Z,13.48
2022-07-26T20:03:30.336Z,16.20
2022-07-26T20:05:58.328Z,13.82
2022-07-26T20:08:26.010Z,10.63
2022-07-26T20:10:53.734Z,12.85
2022-07-26T20:13:21.248Z,11.85
2022-07-26T20:15:48.767Z,12.55
2022-07-26T20:18:18.373Z,12.50
2022-07-26T20:20:45.874Z,15.65
2022-07-26T20:23:13.298Z,10.70
2022-07-26T20:25:40.850Z,10.68
2022-07-26T20:28:08.293Z,9.57
2022-07-26T20:30:35.928Z,12.15
2022-07-26T20:33:03.536Z,10.27
2022-07-26T20:35:31.509Z,11.77
2022-07-26T20:37:59.149Z,10.80
2022-07-26T20:40:28.731Z,10.45
2022-07-26T20:42:56.435Z,13.43
2022-07-26T20:45:24.083Z,10.48
2022-07-26T20:47:55.395Z,15.18
2022-07-26T20:50:23.385Z,15.35
2022-07-26T20:52:51.547Z,17.27
2022-07-26T20:55:19.214Z,12.73
2022-07-26T20:57:47.143Z,13.38
2022-07-26T21:00:15.101Z,14.95
2022-07-26T21:02:42.632Z,12.13
2022-07-26T21:05:11.106Z,15.50
2022-07-26T21:07:58.344Z,14.50
2022-07-26T21:10:26.106Z,13.57
2022-07-26T21:12:54.694Z,15.32
2022-07-26T21:15:22.226Z,14.02
2022-07-26T21:17:49.652Z,18.10
2022-07-26T21:20:19.517Z,12.23
2022-07-26T21:22:47.019Z,12.68
2022-07-26T21:25:14.490Z,10.88
2022-07-26T21:27:42.273Z,10.98
2022-07-26T21:30:10.051Z,13.32
2022-07-26T21:32:37.463Z,12.63
2022-07-26T21:35:05.214Z,9.52
2022-07-26T21:37:33.006Z,13.27
2022-07-26T21:40:00.933Z,12.27
2022-07-26T21:42:28.724Z,12.65
2022-07-26T21:44:56.161Z,12.45
2022-07-26T21:47:23.716Z,12.50
2022-07-26T21:49:51.159Z,14.63
2022-07-26T21:52:18.611Z,11.07
2022-07-26T21:54:46.035Z,13.70
2022-07-26T21:57:13.659Z,15.98
2022-07-26T21:59:41.084Z,14.30
2022-07-26T22:02:08.677Z,16.02
2022-07-26T22:04:36.292Z,17.55
2022-07-26T22:07:03.905Z,18.42
2022-07-26T22:09:34.634Z,13.43
2022-07-26T22:12:02.080Z,15.88
2022-07-26T22:14:29.643Z,14.43
2022-07-26T22:16:57.174Z,15.82
2022-07-26T22:19:24.744Z,19.30
2022-07-26T22:21:52.196Z,15.93
2022-07-26T22:24:19.807Z,17.88
2022-07-26T22:26:47.339Z,14.70
2022-07-26T22:29:14.987Z,16.95
2022-07-26T22:31:42.524Z,15.38
2022-07-26T22:34:10.060Z,13.10
2022-07-26T22:36:40.014Z,16.33
2022-07-26T22:39:12.980Z,15.93
2022-07-26T22:42:04.946Z,13.68
2022-07-26T22:44:28.395Z,17.67
2022-07-26T22:46:55.896Z,13.50
2022-07-26T22:49:23.548Z,14.98
2022-07-26T22:51:51.067Z,12.05
2022-07-26T22:54:18.552Z,15.40
2022-07-26T22:56:46.668Z,13.65
2022-07-26T22:59:14.646Z,15.05
2022-07-26T23:01:42.479Z,11.30
2022-07-26T23:04:10.120Z,13.48
2022-07-26T23:06:38.203Z,12.80
2022-07-26T23:09:06.018Z,14.63
2022-07-26T23:11:33.476Z,13.68
2022-07-26T23:14:01.502Z,12.75
2022-07-26T23:16:29.035Z,13.00
2022-07-26T23:18:56.669Z,13.43
2022-07-26T23:21:24.191Z,17.23
2022-07-26T23:23:51.687Z,16.27
2022-07-26T23:26:19.180Z,18.10
2022-07-26T23:28:46.678Z,14.50
2022-07-26T23:31:14.406Z,16.85
2022-07-26T23:33:51.510Z,14.52
2022-07-26T23:36:30.486Z,12.52
2022-07-26T23:38:59.182Z,15.00
2022-07-26T23:41:27.411Z,23.70
2022-07-26T23:43:55.361Z,15.90
2022-07-26T23:46:23.290Z,14.43
2022-07-26T23:48:51.215Z,14.25
2022-07-26T23:51:19.594Z,13.50
2022-07-26T23:53:47.552Z,15.60
2022-07-26T23:56:15.512Z,16.98
2022-07-26T23:58:43.071Z,12.00
